createdAt,value
2023-03-23T00:00:23.936Z,7.47
2023-03-23T00:02:50.669Z,8.17
2023-03-23T00:05:17.722Z,7.80
2023-03-23T00:07:46.498Z,6.97
2023-03-23T00:10:13.202Z,7.33
2023-03-23T00:12:43.257Z,7.30
2023-03-23T00:15:14.158Z,7.15
2023-03-23T00:17:41.718Z,7.63
2023-03-23T00:20:10.723Z,6.53
2023-03-23T00:22:39.008Z,6.37
2023-03-23T00:25:09.475Z,6.40
2023-03-23T00:27:36.607Z,6.40
2023-03-23T00:30:03.991Z,6.13
2023-03-23T00:32:31.152Z,6.43
2023-03-23T00:35:01.740Z,5.97
2023-03-23T00:39:58.290Z,5.67
2023-03-23T00:42:26.081Z,5.43
2023-03-23T00:45:00.892Z,6.77
2023-03-23T00:47:27.931Z,6.30
2023-03-23T00:49:57.038Z,5.83
2023-03-23T00:52:24.029Z,6.70
2023-03-23T00:54:51.913Z,6.67
2023-03-23T00:57:19.124Z,6.60
2023-03-23T00:59:46.335Z,6.27
2023-03-23T01:02:13.127Z,5.87
2023-03-23T01:04:40.747Z,6.20
2023-03-23T01:07:09.451Z,6.57
2023-03-23T01:09:37.537Z,5.77
2023-03-23T01:12:04.501Z,5.80
2023-03-23T01:14:31.355Z,5.77
2023-03-23T01:16:58.774Z,6.03
2023-03-23T01:19:25.801Z,6.27
2023-03-23T01:21:52.575Z,6.33
2023-03-23T01:24:19.492Z,5.43
2023-03-23T01:26:46.532Z,6.07
2023-03-23T01:29:13.250Z,6.13
2023-03-23T01:31:40.048Z,6.03
2023-03-23T01:34:06.777Z,6.10
2023-03-23T01:36:34.003Z,6.20
2023-03-23T01:39:04.708Z,6.00
2023-03-23T01:41:32.870Z,6.23
2023-03-23T01:44:06.816Z,5.87
2023-03-23T01:46:37.532Z,6.10
2023-03-23T01:51:42.288Z,5.73
2023-03-23T01:54:20.509Z,5.87
2023-03-23T01:57:00.210Z,5.70
2023-03-23T01:59:29.963Z,6.20
2023-03-23T02:01:57.139Z,5.47
2023-03-23T02:04:26.312Z,5.53
2023-03-23T02:06:54.126Z,5.50
2023-03-23T02:09:21.969Z,5.50
2023-03-23T02:11:54.231Z,5.40
2023-03-23T02:14:23.694Z,4.93
2023-03-23T02:16:58.651Z,4.57
2023-03-23T02:19:28.613Z,4.57
2023-03-23T02:22:20.160Z,5.20
2023-03-23T02:24:53.007Z,5.07
2023-03-23T02:27:38.083Z,4.47
2023-03-23T02:30:16.748Z,5.00
2023-03-23T02:33:17.674Z,5.40
2023-03-23T02:35:51.443Z,4.97
2023-03-23T02:38:28.900Z,5.73
2023-03-23T02:41:00.646Z,5.13
2023-03-23T02:43:35.187Z,5.53
2023-03-23T02:46:07.450Z,4.70
2023-03-23T02:48:35.283Z,4.70
2023-03-23T02:51:04.782Z,5.07
2023-03-23T02:53:35.904Z,6.97
2023-03-23T02:56:06.216Z,5.10
2023-03-23T02:58:34.694Z,5.10
2023-03-23T03:01:26.288Z,4.80
2023-03-23T03:03:55.278Z,5.17
2023-03-23T03:06:49.886Z,5.33
2023-03-23T03:09:58.248Z,5.53
2023-03-23T03:12:35.813Z,6.13
2023-03-23T03:15:24.550Z,6.73
2023-03-23T03:18:23.069Z,7.37
2023-03-23T03:20:54.648Z,6.13
2023-03-23T03:23:24.003Z,6.77
2023-03-23T03:25:52.416Z,6.95
2023-03-23T03:28:22.609Z,8.43
2023-03-23T03:30:55.731Z,7.88
2023-03-23T03:33:26.577Z,7.80
2023-03-23T03:35:56.913Z,7.72
2023-03-23T03:38:23.915Z,7.47
2023-03-23T03:40:51.266Z,7.50
2023-03-23T03:43:18.606Z,8.07
2023-03-23T03:45:45.546Z,7.90
2023-03-23T03:48:12.759Z,8.10
2023-03-23T03:50:40.195Z,14.13
2023-03-23T03:53:07.347Z,10.77
2023-03-23T03:55:36.655Z,10.93
2023-03-23T03:58:05.643Z,9.07
2023-03-23T04:00:32.352Z,6.60
2023-03-23T04:03:01.198Z,8.00
2023-03-23T04:05:29.929Z,9.33
2023-03-23T04:08:09.624Z,8.57
2023-03-23T04:10:36.921Z,7.35
2023-03-23T04:13:05.946Z,8.60
2023-03-23T04:15:32.642Z,8.40
2023-03-23T04:17:59.895Z,9.33
2023-03-23T04:20:32.130Z,9.33
2023-03-23T04:23:01.474Z,8.10
2023-03-23T04:25:28.896Z,7.30
2023-03-23T04:27:55.810Z,6.70
2023-03-23T04:30:26.154Z,6.87
2023-03-23T04:32:56.156Z,8.00
2023-03-23T04:35:27.546Z,7.73
2023-03-23T04:37:55.020Z,7.30
2023-03-23T04:40:22.206Z,8.00
2023-03-23T04:42:50.037Z,8.03
2023-03-23T04:45:22.642Z,6.83
2023-03-23T04:47:58.747Z,9.13
2023-03-23T04:50:32.000Z,6.50
2023-03-23T04:52:59.818Z,6.60
2023-03-23T04:55:27.349Z,6.83
2023-03-23T04:57:54.136Z,7.57
2023-03-23T05:00:22.106Z,7.40
2023-03-23T05:02:52.590Z,7.53
2023-03-23T05:05:20.739Z,7.10
2023-03-23T05:07:47.957Z,7.40
2023-03-23T05:10:25.892Z,6.90
2023-03-23T05:12:54.305Z,7.43
2023-03-23T05:15:21.436Z,6.23
2023-03-23T05:17:49.958Z,6.53
2023-03-23T05:20:21.454Z,6.77
2023-03-23T05:22:51.617Z,5.87
2023-03-23T05:25:24.006Z,6.65
2023-03-23T05:27:53.811Z,6.93
2023-03-23T05:30:22.373Z,6.15
2023-03-23T05:32:53.293Z,6.10
2023-03-23T05:35:20.310Z,6.23
2023-03-23T05:37:47.249Z,6.47
2023-03-23T05:40:14.790Z,6.03
2023-03-23T05:42:42.261Z,6.13
2023-03-23T05:45:12.084Z,6.33
2023-03-23T05:47:43.007Z,7.75
2023-03-23T05:50:10.368Z,7.87
2023-03-23T05:52:37.973Z,6.77
2023-03-23T05:55:05.202Z,6.90
2023-03-23T05:57:32.629Z,7.47
2023-03-23T05:59:59.809Z,5.77
2023-03-23T06:02:29.466Z,6.80
2023-03-23T06:04:58.689Z,6.55
2023-03-23T06:07:26.414Z,6.47
2023-03-23T06:09:53.708Z,6.30
2023-03-23T06:12:23.213Z,6.77
2023-03-23T06:14:50.162Z,6.95
2023-03-23T06:17:18.446Z,5.80
2023-03-23T06:19:51.055Z,6.67
2023-03-23T06:22:18.706Z,6.73
2023-03-23T06:24:45.817Z,6.00
2023-03-23T06:27:13.670Z,6.50
2023-03-23T06:29:41.955Z,7.07
2023-03-23T06:32:08.785Z,5.87
2023-03-23T06:34:35.519Z,4.80
2023-03-23T06:37:03.338Z,4.97
2023-03-23T06:39:30.467Z,6.00
2023-03-23T06:42:00.675Z,5.63
2023-03-23T06:46:54.222Z,4.47
2023-03-23T06:49:21.208Z,5.23
2023-03-23T06:51:48.891Z,5.00
2023-03-23T06:54:15.782Z,3.67
2023-03-23T06:56:42.470Z,4.00
2023-03-23T06:59:10.449Z,4.17
2023-03-23T07:01:37.693Z,4.17
2023-03-23T07:04:04.599Z,4.20
2023-03-23T07:06:31.610Z,4.33
2023-03-23T07:08:58.931Z,4.00
2023-03-23T07:11:26.250Z,3.77
2023-03-23T07:13:53.082Z,3.87
2023-03-23T07:16:20.823Z,4.20
2023-03-23T07:18:47.760Z,4.60
2023-03-23T07:21:14.507Z,3.90
2023-03-23T07:23:41.420Z,3.90
2023-03-23T07:26:08.803Z,4.30
2023-03-23T07:28:35.798Z,4.10
2023-03-23T07:31:02.545Z,6.13
2023-03-23T07:33:29.275Z,4.23
2023-03-23T07:35:56.126Z,3.70
2023-03-23T07:38:22.915Z,3.80
2023-03-23T07:40:49.925Z,4.30
2023-03-23T07:43:17.029Z,3.83
2023-03-23T07:45:44.130Z,3.40
2023-03-23T07:48:20.976Z,3.20
2023-03-23T07:50:48.342Z,3.43
2023-03-23T07:53:16.663Z,3.23
2023-03-23T07:55:44.228Z,3.00
2023-03-23T07:58:11.144Z,3.37
2023-03-23T08:00:37.838Z,3.10
2023-03-23T08:03:07.414Z,3.20
2023-03-23T08:05:35.251Z,3.47
2023-03-23T08:08:02.617Z,2.93
2023-03-23T08:10:29.294Z,3.20
2023-03-23T08:12:57.549Z,3.90
2023-03-23T08:15:24.881Z,3.53
2023-03-23T08:17:52.461Z,3.73
2023-03-23T08:20:20.335Z,3.47
2023-03-23T08:22:53.853Z,3.33
2023-03-23T08:25:21.252Z,3.90
2023-03-23T08:27:48.803Z,3.37
2023-03-23T08:30:20.424Z,3.37
2023-03-23T08:32:48.633Z,3.37
2023-03-23T08:35:16.918Z,3.60
2023-03-23T08:37:43.919Z,4.13
2023-03-23T08:40:17.701Z,3.73
2023-03-23T08:42:47.340Z,3.37
2023-03-23T08:45:22.298Z,3.30
2023-03-23T08:47:57.302Z,3.10
2023-03-23T08:50:27.466Z,3.37
2023-03-23T08:52:55.268Z,3.70
2023-03-23T08:55:23.128Z,7.37
2023-03-23T08:57:49.953Z,4.10
2023-03-23T09:00:20.360Z,4.50
2023-03-23T09:02:50.539Z,3.27
2023-03-23T09:05:18.880Z,5.00
2023-03-23T09:07:48.841Z,3.77
2023-03-23T09:10:16.540Z,3.80
2023-03-23T09:12:44.460Z,4.07
2023-03-23T09:15:18.591Z,3.20
2023-03-23T09:17:51.194Z,3.00
2023-03-23T09:20:21.889Z,2.83
2023-03-23T09:22:51.498Z,3.00
2023-03-23T09:25:22.575Z,3.00
2023-03-23T09:27:58.708Z,3.23
2023-03-23T09:30:34.480Z,2.97
2023-03-23T09:33:06.084Z,2.73
2023-03-23T09:35:35.412Z,3.10
2023-03-23T09:38:03.259Z,3.33
2023-03-23T09:40:49.714Z,3.40
2023-03-23T09:43:48.481Z,3.40
2023-03-23T09:46:31.363Z,3.07
2023-03-23T09:49:02.470Z,3.30
2023-03-23T09:51:50.859Z,3.23
2023-03-23T09:54:31.690Z,2.50
2023-03-23T09:57:00.417Z,3.17
2023-03-23T09:59:40.300Z,3.50
2023-03-23T10:04:46.802Z,3.10
2023-03-23T10:07:23.454Z,3.00
2023-03-23T10:09:58.002Z,3.07
2023-03-23T10:12:43.106Z,3.43
2023-03-23T10:15:18.070Z,3.90
2023-03-23T10:17:51.564Z,3.33
2023-03-23T10:21:05.331Z,3.47
2023-03-23T10:23:51.238Z,3.13
2023-03-23T10:26:37.027Z,3.00
2023-03-23T10:29:17.770Z,2.70
2023-03-23T10:31:53.633Z,2.93
2023-03-23T10:34:34.466Z,3.50
2023-03-23T10:37:12.256Z,4.20
2023-03-23T10:40:00.197Z,3.40
2023-03-23T10:42:30.301Z,3.67
2023-03-23T10:44:59.185Z,3.30
2023-03-23T10:47:25.991Z,3.30
2023-03-23T10:50:07.079Z,3.27
2023-03-23T10:52:40.362Z,3.40
2023-03-23T10:55:19.984Z,3.30
2023-03-23T10:58:13.082Z,3.65
2023-03-23T11:00:46.345Z,3.40
2023-03-23T11:03:16.956Z,3.60
2023-03-23T11:06:04.878Z,3.50
2023-03-23T11:08:36.439Z,3.53
2023-03-23T11:11:17.891Z,3.40
2023-03-23T11:13:47.745Z,3.13
2023-03-23T11:16:25.495Z,4.00
2023-03-23T11:18:53.923Z,3.70
2023-03-23T11:21:23.609Z,3.60
2023-03-23T11:24:09.255Z,3.65
2023-03-23T11:26:40.222Z,3.40
2023-03-23T11:29:17.903Z,3.50
2023-03-23T11:32:07.706Z,2.70
2023-03-23T11:34:44.010Z,2.70
2023-03-23T11:37:18.375Z,3.50
2023-03-23T11:40:10.322Z,2.87
2023-03-23T11:42:44.111Z,3.03
2023-03-23T11:45:21.580Z,2.57
2023-03-23T11:47:56.028Z,2.30
2023-03-23T11:50:30.524Z,2.00
2023-03-23T11:53:16.947Z,2.70
2023-03-23T11:55:46.478Z,2.23
2023-03-23T11:58:18.414Z,1.90
2023-03-23T12:01:06.116Z,3.00
2023-03-23T12:03:34.781Z,2.50
2023-03-23T12:06:08.611Z,3.10
2023-03-23T12:08:55.458Z,4.50
2023-03-23T12:11:39.945Z,2.70
2023-03-23T12:14:09.641Z,2.60
2023-03-23T12:16:48.676Z,3.28
2023-03-23T12:19:19.472Z,2.97
2023-03-23T12:22:07.441Z,3.00
2023-03-23T12:24:47.360Z,3.73
2023-03-23T12:27:26.181Z,4.00
2023-03-23T12:30:07.913Z,2.70
2023-03-23T12:33:00.757Z,2.43
2023-03-23T12:35:37.680Z,2.60
2023-03-23T12:38:26.496Z,2.83
2023-03-23T12:40:57.085Z,3.23
2023-03-23T12:43:43.692Z,2.50
2023-03-23T12:46:34.038Z,2.47
2023-03-23T12:49:06.114Z,2.53
2023-03-23T12:51:47.678Z,3.03
2023-03-23T12:54:24.650Z,3.17
2023-03-23T12:56:57.998Z,2.13
2023-03-23T12:59:37.436Z,2.47
2023-03-23T13:02:35.961Z,3.35
2023-03-23T13:05:23.466Z,2.40
2023-03-23T13:07:55.758Z,2.00
2023-03-23T13:10:28.855Z,2.10
2023-03-23T13:12:56.802Z,1.90
2023-03-23T13:15:46.094Z,2.50
2023-03-23T13:18:36.930Z,2.00
2023-03-23T13:21:15.622Z,2.73
2023-03-23T13:23:47.182Z,4.17
2023-03-23T13:26:24.053Z,3.30
2023-03-23T13:29:09.804Z,2.33
2023-03-23T13:31:38.945Z,2.70
2023-03-23T13:34:19.688Z,3.72
2023-03-23T13:36:57.421Z,2.53
2023-03-23T13:39:28.868Z,2.73
2023-03-23T13:42:27.797Z,2.77
2023-03-23T13:44:54.927Z,3.00
2023-03-23T13:47:27.206Z,2.50
2023-03-23T13:50:02.910Z,2.77
2023-03-23T13:52:52.541Z,2.50
2023-03-23T13:55:21.532Z,2.85
2023-03-23T13:58:03.418Z,3.90
2023-03-23T14:00:30.268Z,2.97
2023-03-23T14:03:18.487Z,3.47
2023-03-23T14:05:49.959Z,2.83
2023-03-23T14:08:29.964Z,3.63
2023-03-23T14:13:52.484Z,3.33
2023-03-23T14:16:24.063Z,4.50
2023-03-23T14:18:59.367Z,4.00
2023-03-23T14:21:41.145Z,3.00
2023-03-23T14:24:19.041Z,2.50
2023-03-23T14:26:46.364Z,2.73
2023-03-23T14:29:14.178Z,3.60
2023-03-23T14:31:41.951Z,3.77
2023-03-23T14:34:21.573Z,4.80
2023-03-23T14:36:48.472Z,4.90
2023-03-23T14:39:15.150Z,3.50
2023-03-23T14:41:42.318Z,4.07
2023-03-23T14:44:14.053Z,4.17
2023-03-23T14:46:43.613Z,3.10
2023-03-23T14:49:18.667Z,3.85
2023-03-23T14:51:53.729Z,3.40
2023-03-23T14:54:28.573Z,3.53
2023-03-23T14:56:56.783Z,3.43
2023-03-23T14:59:23.415Z,7.60
2023-03-23T15:01:52.383Z,3.83
2023-03-23T15:04:22.684Z,3.30
2023-03-23T15:06:57.715Z,4.30
2023-03-23T15:09:25.503Z,3.53
2023-03-23T15:12:04.479Z,3.77
2023-03-23T15:14:46.361Z,4.47
2023-03-23T15:17:22.765Z,4.30
2023-03-23T15:19:51.030Z,3.47
2023-03-23T15:22:23.269Z,6.07
2023-03-23T15:24:53.824Z,6.50
2023-03-23T15:27:27.619Z,4.00
2023-03-23T15:29:59.945Z,4.50
2023-03-23T15:32:30.496Z,3.67
2023-03-23T15:34:59.427Z,4.97
2023-03-23T15:37:46.577Z,4.70
2023-03-23T15:40:27.965Z,5.57
2023-03-23T15:43:17.081Z,3.63
2023-03-23T15:46:21.700Z,6.93
2023-03-23T15:48:58.865Z,4.00
2023-03-23T15:51:29.410Z,3.37
2023-03-23T15:54:00.132Z,3.33
2023-03-23T15:56:30.810Z,4.33
2023-03-23T15:59:01.228Z,3.90
2023-03-23T16:01:30.082Z,3.00
2023-03-23T16:04:07.688Z,5.03
2023-03-23T16:06:35.611Z,4.17
2023-03-23T16:09:02.375Z,4.93
2023-03-23T16:11:31.549Z,3.80
2023-03-23T16:13:59.393Z,3.80
2023-03-23T16:16:51.177Z,3.10
2023-03-23T16:19:24.747Z,3.60
2023-03-23T16:21:51.505Z,3.50
2023-03-23T16:24:18.186Z,3.50
2023-03-23T16:26:45.044Z,3.00
2023-03-23T16:29:23.925Z,3.57
2023-03-23T16:31:55.746Z,3.67
2023-03-23T16:34:22.571Z,3.63
2023-03-23T16:36:49.432Z,3.80
2023-03-23T16:39:19.335Z,3.67
2023-03-23T16:41:46.279Z,4.20
2023-03-23T16:44:13.272Z,6.27
2023-03-23T16:46:40.046Z,4.53
2023-03-23T16:49:06.735Z,3.37
2023-03-23T16:51:33.515Z,3.50
2023-03-23T16:54:00.206Z,3.00
2023-03-23T16:56:26.914Z,3.43
2023-03-23T16:58:53.619Z,3.40
2023-03-23T17:01:20.441Z,3.07
2023-03-23T17:03:47.305Z,3.60
2023-03-23T17:06:14.061Z,3.40
2023-03-23T17:08:41.309Z,2.87
2023-03-23T17:11:11.509Z,2.97
2023-03-23T17:13:38.438Z,3.40
2023-03-23T17:16:05.935Z,3.30
2023-03-23T17:18:32.739Z,3.10
2023-03-23T17:21:00.099Z,3.13
2023-03-23T17:23:27.884Z,4.30
2023-03-23T17:25:54.670Z,3.47
2023-03-23T17:28:21.899Z,5.70
2023-03-23T17:30:49.535Z,11.17
2023-03-23T17:33:16.506Z,5.40
2023-03-23T17:35:45.583Z,5.10
2023-03-23T17:38:12.682Z,5.30
2023-03-23T17:40:39.441Z,5.07
2023-03-23T17:43:07.282Z,6.23
2023-03-23T17:45:34.032Z,6.73
2023-03-23T17:48:00.754Z,6.67
2023-03-23T17:50:27.708Z,6.67
2023-03-23T17:52:54.625Z,6.67
2023-03-23T17:55:22.340Z,6.03
2023-03-23T17:57:50.037Z,5.63
2023-03-23T18:00:17.641Z,6.17
2023-03-23T18:02:44.470Z,5.77
2023-03-23T18:05:12.099Z,6.37
2023-03-23T18:07:38.808Z,5.00
2023-03-23T18:10:13.126Z,5.90
2023-03-23T18:12:42.066Z,5.30
2023-03-23T18:15:10.534Z,6.53
2023-03-23T18:17:38.439Z,10.83
2023-03-23T18:20:06.953Z,10.30
2023-03-23T18:22:33.752Z,7.10
2023-03-23T18:25:02.736Z,5.93
2023-03-23T18:27:29.463Z,6.03
2023-03-23T18:29:56.404Z,5.00
2023-03-23T18:32:23.251Z,5.43
2023-03-23T18:34:50.374Z,5.17
2023-03-23T18:37:17.590Z,5.00
2023-03-23T18:39:44.438Z,5.07
2023-03-23T18:42:12.199Z,5.27
2023-03-23T18:44:40.002Z,5.27
2023-03-23T18:47:07.034Z,5.67
2023-03-23T18:49:33.894Z,4.67
2023-03-23T18:52:01.113Z,5.27
2023-03-23T18:54:29.730Z,5.10
2023-03-23T18:57:00.238Z,4.93
2023-03-23T18:59:30.627Z,5.20
2023-03-23T19:04:24.405Z,11.53
2023-03-23T19:06:51.270Z,10.53
2023-03-23T19:09:19.023Z,15.60
2023-03-23T19:11:47.528Z,13.40
2023-03-23T19:14:14.938Z,11.97
2023-03-23T19:16:42.202Z,8.03
2023-03-23T19:19:09.741Z,8.10
2023-03-23T19:21:37.877Z,9.33
2023-03-23T19:24:07.521Z,8.73
2023-03-23T19:26:40.571Z,8.23
2023-03-23T19:29:26.096Z,6.97
2023-03-23T19:31:55.804Z,7.00
2023-03-23T19:34:25.073Z,7.37
2023-03-23T19:36:56.484Z,7.93
2023-03-23T19:39:31.506Z,8.33
2023-03-23T19:41:58.561Z,7.87
2023-03-23T19:44:25.659Z,8.67
2023-03-23T19:46:52.598Z,8.80
2023-03-23T19:49:19.879Z,8.63
2023-03-23T19:51:46.703Z,8.20
2023-03-23T19:54:13.538Z,8.00
2023-03-23T19:56:40.583Z,8.07
2023-03-23T19:59:10.701Z,7.90
2023-03-23T20:04:05.621Z,7.23
2023-03-23T20:06:37.682Z,7.07
2023-03-23T20:09:05.189Z,7.47
2023-03-23T20:11:32.202Z,7.47
2023-03-23T20:13:59.075Z,7.10
2023-03-23T20:16:26.466Z,7.10
2023-03-23T20:18:54.317Z,6.63
2023-03-23T20:21:25.923Z,6.37
2023-03-23T20:23:57.793Z,6.03
2023-03-23T20:26:29.320Z,6.50
2023-03-23T20:28:56.588Z,13.93
2023-03-23T20:31:27.004Z,8.17
2023-03-23T20:34:01.097Z,7.40
2023-03-23T20:36:37.592Z,7.63
2023-03-23T20:39:08.353Z,6.87
2023-03-23T20:41:42.235Z,6.90
2023-03-23T20:44:14.305Z,7.33
2023-03-23T20:46:46.450Z,7.17
2023-03-23T20:49:14.271Z,6.90
2023-03-23T20:51:43.888Z,7.00
2023-03-23T20:54:14.206Z,6.65
2023-03-23T20:56:42.545Z,7.03
2023-03-23T20:59:09.977Z,9.53
2023-03-23T21:01:40.069Z,8.03
2023-03-23T21:04:15.055Z,7.38
2023-03-23T21:06:49.182Z,6.80
2023-03-23T21:09:17.507Z,6.80
2023-03-23T21:11:45.069Z,7.07
2023-03-23T21:14:13.166Z,7.37
2023-03-23T21:16:40.754Z,7.30
2023-03-23T21:19:13.192Z,7.00
2023-03-23T21:21:56.607Z,7.73
2023-03-23T21:24:29.041Z,7.50
2023-03-23T21:26:58.192Z,7.43
2023-03-23T21:29:28.334Z,7.57
2023-03-23T21:32:07.811Z,7.50
2023-03-23T21:34:36.134Z,7.82
2023-03-23T21:37:04.309Z,7.23
2023-03-23T21:39:31.062Z,12.03
2023-03-23T21:41:59.574Z,10.97
2023-03-23T21:44:26.503Z,8.27
2023-03-23T21:46:54.687Z,7.87
2023-03-23T21:49:21.772Z,8.20
2023-03-23T21:51:49.802Z,8.07
2023-03-23T21:54:16.595Z,7.67
2023-03-23T21:56:43.361Z,7.93
2023-03-23T21:59:10.294Z,7.23
2023-03-23T22:01:37.283Z,6.60
2023-03-23T22:04:04.495Z,6.70
2023-03-23T22:06:31.689Z,7.00
2023-03-23T22:08:58.764Z,6.60
2023-03-23T22:11:31.096Z,6.87
2023-03-23T22:13:58.418Z,6.30
2023-03-23T22:16:26.333Z,6.23
2023-03-23T22:18:55.458Z,6.50
2023-03-23T22:21:26.703Z,5.93
2023-03-23T22:23:56.043Z,6.17
2023-03-23T22:26:23.124Z,6.55
2023-03-23T22:28:51.213Z,5.93
2023-03-23T22:31:21.475Z,5.67
2023-03-23T22:33:50.584Z,6.00
2023-03-23T22:36:18.143Z,5.70
2023-03-23T22:38:47.242Z,6.27
2023-03-23T22:41:26.266Z,6.30
2023-03-23T22:43:53.208Z,7.13
2023-03-23T22:46:20.740Z,6.43
2023-03-23T22:48:47.585Z,5.73
2023-03-23T22:51:16.579Z,6.67
2023-03-23T22:53:44.198Z,6.60
2023-03-23T22:56:12.071Z,7.17
2023-03-23T22:58:39.396Z,5.73
2023-03-23T23:01:14.306Z,6.03
2023-03-23T23:03:41.413Z,6.33
2023-03-23T23:06:09.839Z,6.23
2023-03-23T23:08:36.627Z,5.93
2023-03-23T23:11:05.085Z,5.70
2023-03-23T23:13:33.277Z,5.93
2023-03-23T23:16:02.228Z,6.30
2023-03-23T23:18:31.072Z,5.93
2023-03-23T23:21:01.109Z,5.77
2023-03-23T23:23:28.625Z,6.63
2023-03-23T23:25:55.546Z,6.27
2023-03-23T23:28:23.027Z,5.60
2023-03-23T23:30:51.177Z,6.13
2023-03-23T23:33:19.033Z,5.63
2023-03-23T23:35:46.427Z,6.17
2023-03-23T23:38:13.697Z,6.07
2023-03-23T23:40:43.214Z,5.70
2023-03-23T23:43:15.598Z,5.63
2023-03-23T23:45:43.794Z,5.70
2023-03-23T23:48:11.315Z,6.00
2023-03-23T23:50:38.094Z,6.60
2023-03-23T23:53:05.176Z,6.00
2023-03-23T23:55:33.095Z,4.90
2023-03-23T23:58:00.115Z,6.17
